Time;durP1;ratioP1;P1;durP2;ratioP2;P2;SDS_P1;SDS_P2;PMS_P1;PMS_P2;Temp;Humidity;BMP_temperature;BMP_pressure;BME280_temperature;BME280_humidity;BME280_pressure;Samples;Min_cycle;Max_cycle;Signal;HPM_P1;HPM_P2
2023/09/28 00:02:20;;;;;;;13.10;4.97;;;;;;;14.98;100.00;94877.34;5034634;28;20036;-80
2023/09/28 00:04:45;;;;;;;19.65;5.35;;;;;;;14.99;100.00;94873.63;5051227;28;20116;-81
2023/09/28 00:07:11;;;;;;;20.17;5.53;;;;;;;14.98;100.00;94875.47;5034395;28;20194;-81
2023/09/28 00:09:36;;;;;;;18.73;4.93;;;;;;;15.02;100.00;94872.28;5051557;28;20358;-81
2023/09/28 00:12:02;;;;;;;17.55;4.55;;;;;;;15.03;100.00;94871.22;5035841;28;20037;-81
2023/09/28 00:14:28;;;;;;;9.80;4.47;;;;;;;15.10;100.00;94869.78;5051295;28;20033;-80
2023/09/28 00:16:53;;;;;;;14.45;4.93;;;;;;;15.06;100.00;94866.16;5054043;28;20122;-81
2023/09/28 00:19:19;;;;;;;18.88;5.63;;;;;;;15.00;100.00;94866.50;5054163;28;20087;-80
2023/09/28 00:21:44;;;;;;;11.15;4.55;;;;;;;14.91;100.00;94863.69;5054232;28;20036;-81
2023/09/28 00:24:10;;;;;;;15.20;4.78;;;;;;;14.88;100.00;94865.06;5054501;28;20461;-81
2023/09/28 00:26:37;;;;;;;15.10;5.15;;;;;;;14.79;100.00;94866.72;5037730;28;20029;-81
2023/09/28 00:29:03;;;;;;;18.20;5.00;;;;;;;14.77;100.00;94861.72;5037653;28;20063;-81
2023/09/28 00:31:28;;;;;;;16.67;4.90;;;;;;;14.78;100.00;94875.72;5054226;28;20029;-80
2023/09/28 00:33:54;;;;;;;15.85;5.75;;;;;;;14.72;100.00;94868.94;5037304;28;20064;-81
2023/09/28 00:36:20;;;;;;;21.67;4.82;;;;;;;14.76;100.00;94873.34;5055401;28;20090;-81
2023/09/28 00:38:47;;;;;;;15.18;5.03;;;;;;;14.86;100.00;94869.03;5053529;28;20501;-81
2023/09/28 00:41:13;;;;;;;13.63;4.40;;;;;;;14.90;100.00;94870.81;5037710;28;20032;-81
2023/09/28 00:43:38;;;;;;;10.35;5.18;;;;;;;14.97;100.00;94870.47;5054094;28;20029;-81
2023/09/28 00:46:04;;;;;;;15.20;4.88;;;;;;;15.03;100.00;94866.69;5053897;28;20021;-81
2023/09/28 00:48:30;;;;;;;14.57;4.85;;;;;;;15.01;100.00;94868.84;5053398;28;20448;-81
2023/09/28 00:50:56;;;;;;;9.60;4.57;;;;;;;14.98;100.00;94869.41;5053810;28;20111;-81
2023/09/28 00:53:21;;;;;;;14.93;4.90;;;;;;;15.03;100.00;94866.69;5053942;28;20036;-81
2023/09/28 00:55:48;;;;;;;9.02;4.72;;;;;;;14.86;100.00;94858.47;5054972;28;20021;-81
2023/09/28 00:58:13;;;;;;;16.33;4.78;;;;;;;14.80;100.00;94868.31;5053601;28;20079;-81
2023/09/28 01:00:40;;;;;;;17.27;5.00;;;;;;;14.86;100.00;94861.13;5053703;28;20025;-81
2023/09/28 01:03:06;;;;;;;14.73;4.85;;;;;;;14.93;100.00;94861.56;5053729;28;20406;-81
2023/09/28 01:05:33;;;;;;;11.90;5.30;;;;;;;14.92;100.00;94859.97;5053659;28;20063;-80
2023/09/28 01:08:21;;;;;;;16.40;5.50;;;;;;;14.93;100.00;94858.94;5053023;28;20469;-81
2023/09/28 01:10:47;;;;;;;14.88;5.40;;;;;;;14.97;100.00;94858.06;5053580;28;20025;-81
2023/09/28 01:13:15;;;;;;;16.33;5.00;;;;;;;14.90;100.00;94857.63;5037102;28;20033;-81
2023/09/28 01:15:42;;;;;;;12.27;5.25;;;;;;;14.91;100.00;94859.22;5053549;28;20083;-81
2023/09/28 01:18:09;;;;;;;12.48;4.82;;;;;;;15.03;100.00;94856.16;5053024;28;20036;-81
2023/09/28 01:20:36;;;;;;;10.77;4.38;;;;;;;14.97;100.00;94852.00;5053653;28;20082;-81
2023/09/28 01:23:04;;;;;;;14.23;5.05;;;;;;;14.96;100.00;94858.38;5053527;28;20082;-81
2023/09/28 01:25:30;;;;;;;11.50;4.68;;;;;;;14.88;100.00;94859.78;5052874;28;20048;-80
2023/09/28 01:27:56;;;;;;;19.17;5.05;;;;;;;14.79;100.00;94862.25;5035423;28;20107;-81
2023/09/28 01:30:23;;;;;;;16.92;5.30;;;;;;;14.74;100.00;94853.59;5024735;28;20029;-81
2023/09/28 01:32:48;;;;;;;9.38;4.65;;;;;;;14.63;100.00;94863.44;5035024;28;20087;-81
2023/09/28 01:35:14;;;;;;;18.38;5.53;;;;;;;14.65;100.00;94853.41;5032695;28;20037;-80
2023/09/28 01:38:06;;;;;;;11.43;4.85;;;;;;;14.40;100.00;94853.38;5037095;28;20346;-81
2023/09/28 01:40:31;;;;;;;11.98;5.72;;;;;;;14.23;100.00;94848.56;5030675;28;20045;-80
2023/09/28 01:42:57;;;;;;;14.82;6.25;;;;;;;14.08;100.00;94851.34;5036702;28;20442;-80
2023/09/28 01:45:22;;;;;;;17.00;6.55;;;;;;;13.92;100.00;94850.66;5053126;28;20025;-80
2023/09/28 01:47:48;;;;;;;15.77;5.97;;;;;;;13.76;100.00;94850.00;5056670;28;20047;-80
2023/09/28 01:50:13;;;;;;;15.38;6.05;;;;;;;13.74;100.00;94845.00;5056890;28;20083;-80
2023/09/28 01:52:38;;;;;;;13.65;6.25;;;;;;;13.73;100.00;94838.19;5056615;28;20021;-80
2023/09/28 01:55:04;;;;;;;14.25;5.45;;;;;;;13.84;100.00;94841.50;5056734;28;20036;-81
2023/09/28 01:57:31;;;;;;;21.55;5.28;;;;;;;13.80;100.00;94840.50;5057450;28;20024;-80
2023/09/28 01:59:57;;;;;;;22.23;6.03;;;;;;;13.89;100.00;94827.53;5056488;28;20071;-80
2023/09/28 02:02:22;;;;;;;13.27;5.80;;;;;;;13.83;100.00;94830.19;5056700;28;20024;-80
2023/09/28 02:04:48;;;;;;;19.85;5.00;;;;;;;13.81;100.00;94832.31;5056402;28;20025;-80
2023/09/28 02:07:13;;;;;;;10.95;5.10;;;;;;;13.91;100.00;94828.78;5056023;28;20044;-81
2023/09/28 02:09:39;;;;;;;13.25;5.65;;;;;;;14.00;100.00;94831.66;5033734;28;20033;-81
2023/09/28 02:12:06;;;;;;;19.15;4.78;;;;;;;14.23;100.00;94830.13;5038577;28;20391;-81
2023/09/28 02:14:32;;;;;;;12.82;5.25;;;;;;;14.47;100.00;94824.06;5040151;28;20032;-81
2023/09/28 02:16:58;;;;;;;13.93;5.18;;;;;;;14.55;100.00;94826.09;5039970;28;20025;-81
2023/09/28 02:19:23;;;;;;;20.25;5.32;;;;;;;14.61;100.00;94823.38;5056587;28;20036;-81
2023/09/28 02:21:48;;;;;;;13.77;4.63;;;;;;;14.71;100.00;94828.53;5057826;28;20086;-81
2023/09/28 02:24:14;;;;;;;19.58;4.90;;;;;;;14.79;100.00;94821.88;5056524;28;20350;-81
2023/09/28 02:26:39;;;;;;;15.27;4.65;;;;;;;14.79;100.00;94825.31;5056429;28;20025;-81
2023/09/28 02:29:05;;;;;;;17.10;4.38;;;;;;;14.71;100.00;94825.91;5056009;28;20029;-81
2023/09/28 02:31:31;;;;;;;13.20;4.90;;;;;;;14.69;100.00;94825.41;5056487;28;20034;-81
2023/09/28 02:33:57;;;;;;;12.38;5.03;;;;;;;14.68;100.00;94821.19;5056375;28;20029;-81
2023/09/28 02:36:22;;;;;;;16.65;4.65;;;;;;;14.70;100.00;94817.22;5056479;28;20028;-81
2023/09/28 02:38:48;;;;;;;14.80;5.32;;;;;;;14.80;100.00;94818.97;5056105;28;20299;-81
2023/09/28 02:41:17;;;;;;;13.05;5.18;;;;;;;14.68;100.00;94806.16;5056159;28;20024;-80
2023/09/28 02:43:43;;;;;;;16.40;4.97;;;;;;;14.73;100.00;94812.47;5056096;28;20345;-80
2023/09/28 02:46:08;;;;;;;20.38;4.95;;;;;;;14.72;100.00;94800.38;5056037;28;20024;-81
2023/09/28 02:48:34;;;;;;;13.18;5.07;;;;;;;14.65;100.00;94808.59;5055379;28;20312;-81
2023/09/28 02:51:00;;;;;;;12.48;4.65;;;;;;;14.68;100.00;94813.28;5055907;28;20031;-81
2023/09/28 02:53:26;;;;;;;14.05;5.22;;;;;;;14.64;100.00;94807.03;5057031;28;20025;-81
2023/09/28 02:55:52;;;;;;;7.22;4.43;;;;;;;14.67;100.00;94814.34;5057861;28;20032;-81
2023/09/28 02:58:18;;;;;;;13.10;5.18;;;;;;;14.53;100.00;94809.75;5055779;28;20345;-81
2023/09/28 03:00:43;;;;;;;13.05;5.00;;;;;;;14.46;100.00;94819.84;5055924;28;20028;-81
2023/09/28 03:03:09;;;;;;;15.20;5.38;;;;;;;14.31;100.00;94807.63;5057268;28;20388;-81
2023/09/28 03:05:38;;;;;;;11.10;5.13;;;;;;;14.35;100.00;94810.50;5057973;28;20021;-81
2023/09/28 03:08:09;;;;;;;13.23;5.20;;;;;;;14.27;100.00;94820.56;5040885;28;20056;-81
2023/09/28 03:10:39;;;;;;;12.95;5.38;;;;;;;14.22;100.00;94809.28;5037577;28;20067;-80
2023/09/28 03:13:05;;;;;;;16.52;5.72;;;;;;;14.22;100.00;94806.66;5021149;28;20025;-81
2023/09/28 03:15:31;;;;;;;8.93;5.25;;;;;;;14.18;100.00;94814.34;5038548;28;20032;-81
2023/09/28 03:17:57;;;;;;;12.82;5.53;;;;;;;14.26;100.00;94807.66;5036824;28;20116;-81
2023/09/28 03:20:25;;;;;;;15.80;5.57;;;;;;;14.28;100.00;94806.34;5036855;28;20431;-81
2023/09/28 03:22:50;;;;;;;19.95;5.25;;;;;;;14.24;100.00;94809.81;5037266;28;20044;-81
2023/09/28 03:25:17;;;;;;;13.63;6.00;;;;;;;14.24;100.00;94810.59;5042186;28;20040;-81
2023/09/28 03:27:45;;;;;;;15.00;5.60;;;;;;;14.31;100.00;94809.47;5056798;28;20096;-81
2023/09/28 03:30:12;;;;;;;12.63;5.55;;;;;;;14.22;100.00;94807.47;5057028;28;20091;-80
2023/09/28 03:32:38;;;;;;;14.50;5.07;;;;;;;14.20;100.00;94814.88;5056883;28;20086;-80
2023/09/28 03:35:10;;;;;;;12.25;5.38;;;;;;;14.10;100.00;94814.94;5055992;28;20408;-80
2023/09/28 03:37:40;;;;;;;13.45;6.00;;;;;;;14.13;100.00;94812.56;5056520;28;20024;-80
2023/09/28 03:40:12;;;;;;;13.38;5.68;;;;;;;14.07;100.00;94816.28;5057968;28;20025;-80
2023/09/28 03:42:43;;;;;;;13.40;5.55;;;;;;;14.13;100.00;94817.03;5056852;28;20450;-81
2023/09/28 03:45:10;;;;;;;15.60;5.72;;;;;;;14.18;100.00;94819.59;5056898;28;20033;-81
2023/09/28 03:47:39;;;;;;;16.85;6.30;;;;;;;14.16;100.00;94821.72;5040012;28;20037;-81
2023/09/28 03:50:07;;;;;;;12.82;5.85;;;;;;;14.10;100.00;94823.63;5039898;28;20029;-81
2023/09/28 03:52:34;;;;;;;12.75;6.00;;;;;;;14.18;100.00;94819.59;5056571;28;20029;-81
2023/09/28 03:55:00;;;;;;;17.02;5.40;;;;;;;14.18;100.00;94824.09;5073324;28;20033;-81
2023/09/28 03:57:25;;;;;;;20.60;5.65;;;;;;;14.19;100.00;94823.81;5056012;28;20083;-81
2023/09/28 03:59:51;;;;;;;16.63;6.03;;;;;;;14.19;100.00;94828.31;5056370;28;20087;-81
2023/09/28 04:02:16;;;;;;;13.15;5.97;;;;;;;14.12;100.00;94824.13;5056265;28;20098;-81
2023/09/28 04:04:42;;;;;;;13.70;5.45;;;;;;;14.12;100.00;94829.41;5039905;28;20028;-80
2023/09/28 04:07:08;;;;;;;17.50;5.22;;;;;;;14.08;100.00;94830.25;5056158;28;20430;-80
2023/09/28 04:09:34;;;;;;;18.67;5.93;;;;;;;13.95;100.00;94836.94;5057027;28;20028;-80
2023/09/28 04:12:00;;;;;;;14.75;6.00;;;;;;;13.96;100.00;94841.16;5039915;28;20071;-80
2023/09/28 04:14:25;;;;;;;16.02;5.85;;;;;;;13.96;100.00;94836.69;5056134;28;20078;-81
2023/09/28 04:16:51;;;;;;;10.15;4.88;;;;;;;13.91;100.00;94846.47;5055912;28;20033;-81
2023/09/28 04:19:16;;;;;;;15.75;5.28;;;;;;;14.00;100.00;94844.81;5056994;28;20036;-81
2023/09/28 04:21:42;;;;;;;16.83;5.70;;;;;;;14.04;100.00;94845.81;5039709;28;20033;-81
2023/09/28 04:24:08;;;;;;;16.25;5.32;;;;;;;14.02;100.00;94841.88;5039591;28;20341;-81
2023/09/28 04:26:33;;;;;;;14.38;5.35;;;;;;;14.10;100.00;94839.44;5055914;28;20029;-81
2023/09/28 04:28:59;;;;;;;16.98;5.53;;;;;;;14.11;100.00;94841.00;5038170;28;20491;-81
2023/09/28 04:31:24;;;;;;;12.35;4.78;;;;;;;14.19;100.00;94838.84;5043454;28;20107;-81
2023/09/28 04:33:50;;;;;;;12.98;5.88;;;;;;;14.23;100.00;94839.84;5054893;28;20033;-81
2023/09/28 04:36:16;;;;;;;11.02;5.13;;;;;;;14.28;100.00;94843.22;5055800;28;20029;-81
2023/09/28 04:38:41;;;;;;;11.45;5.45;;;;;;;14.25;100.00;94843.00;5055632;28;20033;-82
2023/09/28 04:41:07;;;;;;;12.93;5.40;;;;;;;14.28;100.00;94843.22;5055709;28;20024;-82
2023/09/28 04:43:32;;;;;;;14.50;5.38;;;;;;;14.21;100.00;94848.06;5055861;28;20033;-82
2023/09/28 04:45:57;;;;;;;7.20;4.68;;;;;;;14.24;100.00;94847.50;5056784;28;20025;-81
2023/09/28 04:48:23;;;;;;;9.98;5.28;;;;;;;14.22;100.00;94839.09;5055105;28;20116;-82
2023/09/28 04:50:48;;;;;;;13.02;5.03;;;;;;;14.26;100.00;94839.28;5055600;28;20450;-82
2023/09/28 04:53:13;;;;;;;15.73;5.80;;;;;;;14.16;100.00;94842.81;5055489;28;20040;-82
2023/09/28 04:55:39;;;;;;;14.13;5.00;;;;;;;14.15;100.00;94838.59;5055162;28;20039;-81
2023/09/28 04:58:05;;;;;;;11.68;5.88;;;;;;;14.17;100.00;94843.63;5052561;28;20027;-81
2023/09/28 05:00:30;;;;;;;12.52;5.63;;;;;;;14.21;100.00;94834.88;5047347;28;20025;-81
2023/09/28 05:02:56;;;;;;;16.33;5.82;;;;;;;14.23;100.00;94839.84;5038765;28;20078;-82
2023/09/28 05:05:22;;;;;;;15.95;5.13;;;;;;;14.23;100.00;94839.84;5056763;28;20444;-81
2023/09/28 05:07:47;;;;;;;11.20;5.05;;;;;;;14.27;100.00;94838.22;5054968;28;20029;-81
2023/09/28 05:10:13;;;;;;;17.25;5.00;;;;;;;14.32;100.00;94840.81;5055122;28;20036;-81
2023/09/28 05:12:38;;;;;;;14.88;6.22;;;;;;;14.37;100.00;94840.00;5056336;28;20408;-81
2023/09/28 05:15:04;;;;;;;10.77;5.28;;;;;;;14.36;100.00;94844.47;5055325;28;20456;-82
2023/09/28 05:17:31;;;;;;;15.77;4.88;;;;;;;14.49;100.00;94850.16;5055331;28;20116;-82
2023/09/28 05:19:57;;;;;;;19.48;5.22;;;;;;;14.45;100.00;94842.00;5054367;28;20037;-82
2023/09/28 05:22:22;;;;;;;14.77;5.38;;;;;;;14.42;100.00;94847.84;5041963;28;20037;-81
2023/09/28 05:24:48;;;;;;;15.95;6.15;;;;;;;14.44;100.00;94848.34;5059388;28;20501;-82
2023/09/28 05:27:13;;;;;;;11.43;5.00;;;;;;;14.40;100.00;94855.25;5059079;28;20082;-81
2023/09/28 05:29:39;;;;;;;8.23;5.22;;;;;;;14.48;100.00;94856.50;5042369;28;20813;-81
2023/09/28 05:32:05;;;;;;;11.48;5.68;;;;;;;14.55;100.00;94852.44;5059306;28;20040;-82
2023/09/28 05:34:31;;;;;;;13.43;5.28;;;;;;;14.59;100.00;94857.97;5042671;28;20037;-82
2023/09/28 05:36:56;;;;;;;17.30;5.45;;;;;;;14.65;100.00;94850.78;5058980;28;20040;-82
2023/09/28 05:39:21;;;;;;;16.23;4.95;;;;;;;14.76;100.00;94857.53;5059075;28;20040;-82
2023/09/28 05:41:47;;;;;;;10.05;5.38;;;;;;;14.82;100.00;94856.41;5059127;28;20107;-82
2023/09/28 05:44:13;;;;;;;8.52;4.88;;;;;;;14.90;100.00;94856.84;5058926;28;20051;-82
2023/09/28 05:46:39;;;;;;;14.52;5.50;;;;;;;14.95;100.00;94848.88;5058899;28;20454;-82
2023/09/28 05:49:05;;;;;;;16.98;5.35;;;;;;;15.02;100.00;94859.84;5058703;28;20057;-81
2023/09/28 05:51:30;;;;;;;16.95;4.97;;;;;;;15.16;100.00;94859.97;5059961;28;20029;-81
2023/09/28 05:53:56;;;;;;;14.95;5.00;;;;;;;15.20;100.00;94855.69;5058778;28;20039;-82
2023/09/28 05:56:21;;;;;;;13.15;4.60;;;;;;;15.29;100.00;94847.91;5058930;28;20033;-82
2023/09/28 05:58:47;;;;;;;9.23;5.15;;;;;;;15.33;100.00;94848.13;5058938;28;20025;-82
2023/09/28 06:01:16;;;;;;;15.38;4.78;;;;;;;15.44;100.00;94854.84;5042569;28;20075;-82
2023/09/28 06:03:42;;;;;;;12.10;5.20;;;;;;;15.60;100.00;94858.03;5058784;28;20055;-82
2023/09/28 06:06:18;;;;;;;10.82;5.30;;;;;;;15.57;100.00;94871.81;5042343;28;20028;-82
2023/09/28 06:08:46;;;;;;;18.88;5.15;;;;;;;15.45;100.00;94866.19;5059215;28;20457;-82
2023/09/28 06:11:12;;;;;;;17.08;5.47;;;;;;;15.38;100.00;94866.53;5042331;28;20036;-82
2023/09/28 06:13:40;;;;;;;13.20;5.40;;;;;;;15.46;100.00;94873.03;5042093;28;20328;-82
2023/09/28 06:16:05;;;;;;;10.23;4.82;;;;;;;15.55;100.00;94876.59;5058393;28;20496;-82
2023/09/28 06:18:31;;;;;;;10.57;5.60;;;;;;;15.53;100.00;94879.50;5041350;28;20033;-82
2023/09/28 06:20:56;;;;;;;14.20;5.50;;;;;;;15.56;100.00;94878.16;5058408;28;20068;-82
2023/09/28 06:23:21;;;;;;;13.75;4.85;;;;;;;15.61;100.00;94878.09;5058738;28;20054;-82
2023/09/28 06:25:47;;;;;;;11.23;5.05;;;;;;;15.90;100.00;94879.03;5041724;28;20024;-83
2023/09/28 06:28:12;;;;;;;10.95;4.80;;;;;;;16.06;100.00;94880.34;5058299;28;20029;-82
2023/09/28 06:30:38;;;;;;;11.82;5.68;;;;;;;16.33;100.00;94878.84;5059360;28;20056;-82
2023/09/28 06:33:04;;;;;;;10.05;4.88;;;;;;;16.71;100.00;94882.41;5057697;28;20024;-82
2023/09/28 06:35:30;;;;;;;11.70;4.65;;;;;;;16.95;100.00;94884.88;5058048;28;20025;-82
2023/09/28 06:37:55;;;;;;;8.48;4.70;;;;;;;16.96;100.00;94883.81;5057903;28;20143;-82
2023/09/28 06:40:21;;;;;;;10.93;4.60;;;;;;;17.14;100.00;94889.31;5074809;28;20404;-82
2023/09/28 06:42:46;;;;;;;18.60;5.13;;;;;;;17.03;100.00;94894.81;5059066;28;20025;-82
2023/09/28 06:45:12;;;;;;;7.70;4.28;;;;;;;16.87;100.00;94888.22;5057899;28;20036;-82
2023/09/28 06:47:37;;;;;;;8.73;4.72;;;;;;;16.87;100.00;94896.16;5057831;28;20079;-82
2023/09/28 06:50:04;;;;;;;16.30;5.50;;;;;;;16.68;100.00;94902.31;5058519;28;20051;-82
2023/09/28 06:52:30;;;;;;;13.43;5.05;;;;;;;16.61;100.00;94899.25;5058859;28;20025;-82
2023/09/28 06:54:57;;;;;;;13.70;5.05;;;;;;;16.60;100.00;94906.44;5041313;28;20025;-82
2023/09/28 06:57:23;;;;;;;14.40;5.10;;;;;;;16.54;100.00;94913.66;5057838;28;20380;-82
2023/09/28 06:59:48;;;;;;;9.85;5.10;;;;;;;16.11;100.00;94913.84;5057679;28;20458;-82
2023/09/28 07:02:14;;;;;;;11.40;5.03;;;;;;;16.49;100.00;94908.44;5057608;28;20063;-81
2023/09/28 07:04:39;;;;;;;9.40;4.57;;;;;;;16.82;100.00;94921.63;5041001;28;20127;-81
2023/09/28 07:07:05;;;;;;;14.88;4.88;;;;;;;17.15;100.00;94912.84;5057343;28;20029;-82
2023/09/28 07:09:31;;;;;;;14.98;5.30;;;;;;;17.21;100.00;94924.09;5057508;28;20434;-82
2023/09/28 07:11:56;;;;;;;10.20;5.10;;;;;;;16.72;100.00;94913.13;5057433;28;20024;-82
2023/09/28 07:14:22;;;;;;;9.65;5.43;;;;;;;17.35;100.00;94916.16;5040944;28;20036;-82
2023/09/28 07:16:48;;;;;;;18.20;5.57;;;;;;;17.40;100.00;94920.56;5057344;28;20513;-82
2023/09/28 07:19:13;;;;;;;12.10;5.38;;;;;;;17.61;100.00;94916.41;5040465;28;20109;-82
2023/09/28 07:21:38;;;;;;;10.55;5.38;;;;;;;17.97;100.00;94922.00;5057443;28;20040;-82
2023/09/28 07:24:04;;;;;;;14.02;5.00;;;;;;;18.03;100.00;94923.47;5058327;28;20032;-82
2023/09/28 07:26:30;;;;;;;18.15;5.30;;;;;;;18.33;100.00;94927.25;5057039;28;20033;-82
2023/09/28 07:28:56;;;;;;;13.27;6.10;;;;;;;18.33;100.00;94929.13;5056570;28;20033;-82
2023/09/28 07:31:22;;;;;;;18.35;5.45;;;;;;;18.55;100.00;94930.97;5058242;28;20438;-82
2023/09/28 07:33:48;;;;;;;13.90;5.50;;;;;;;18.50;100.00;94933.75;5058184;28;20067;-82
2023/09/28 07:36:14;;;;;;;13.48;5.40;;;;;;;18.51;100.00;94930.00;5058121;28;20083;-82
2023/09/28 07:38:40;;;;;;;12.35;5.03;;;;;;;18.75;100.00;94915.63;5073243;28;20021;-82
2023/09/28 07:41:06;;;;;;;15.25;5.05;;;;;;;18.91;100.00;94919.44;5040206;28;20033;-82
2023/09/28 07:43:31;;;;;;;12.48;5.40;;;;;;;19.06;100.00;94917.47;5056654;28;20036;-82
2023/09/28 07:45:57;;;;;;;9.45;4.20;;;;;;;19.17;100.00;94921.44;5057074;28;20025;-82
2023/09/28 07:48:22;;;;;;;14.65;4.75;;;;;;;19.47;100.00;94918.19;5056480;28;20033;-82
2023/09/28 07:50:48;;;;;;;20.92;5.20;;;;;;;19.48;100.00;94917.91;5056612;28;20112;-82
2023/09/28 07:53:13;;;;;;;10.98;4.90;;;;;;;19.69;100.00;94921.81;5056751;28;20031;-82
2023/09/28 07:55:39;;;;;;;15.25;5.28;;;;;;;19.18;100.00;94922.19;5042375;28;20029;-82
2023/09/28 07:58:05;;;;;;;9.80;4.53;;;;;;;19.25;100.00;94921.75;5036494;28;20324;-82
2023/09/28 08:00:32;;;;;;;13.35;5.07;;;;;;;19.26;100.00;94923.31;5036564;28;20437;-82
2023/09/28 08:02:57;;;;;;;10.05;4.40;;;;;;;19.29;100.00;94917.38;5036416;28;20350;-82
2023/09/28 08:05:23;;;;;;;16.38;5.68;;;;;;;19.05;100.00;94921.22;5053973;28;20029;-82
2023/09/28 08:07:48;;;;;;;12.60;5.03;;;;;;;19.54;100.00;94913.22;5056060;28;20082;-82
2023/09/28 08:10:14;;;;;;;11.27;4.47;;;;;;;19.66;100.00;94917.16;5056242;28;20131;-82
2023/09/28 08:12:40;;;;;;;12.70;5.55;;;;;;;19.40;100.00;94909.91;5057351;28;20055;-82
2023/09/28 08:15:06;;;;;;;10.75;4.93;;;;;;;19.51;100.00;94916.50;5056139;28;20028;-82
2023/09/28 08:17:33;;;;;;;15.63;5.22;;;;;;;19.62;100.00;94917.75;5056226;28;20067;-82
2023/09/28 08:19:59;;;;;;;12.15;5.40;;;;;;;19.68;100.00;94915.72;5057476;28;20036;-82
2023/09/28 08:22:24;;;;;;;14.45;6.30;;;;;;;19.58;100.00;94916.81;5055999;28;20025;-82
2023/09/28 08:24:50;;;;;;;10.55;4.97;;;;;;;19.61;100.00;94918.84;5039496;28;20483;-82
2023/09/28 08:27:16;;;;;;;15.45;5.85;;;;;;;19.43;100.00;94919.91;5055705;28;20431;-82
2023/09/28 08:29:42;;;;;;;10.23;4.60;;;;;;;19.31;100.00;94920.53;5056085;28;20029;-82
2023/09/28 08:32:08;;;;;;;11.90;5.15;;;;;;;19.10;100.00;94921.06;5055894;28;20035;-82
2023/09/28 08:34:34;;;;;;;19.98;5.75;;;;;;;19.48;100.00;94923.22;5056543;28;20057;-82
2023/09/28 08:37:03;;;;;;;12.05;5.18;;;;;;;19.62;100.00;94924.94;5038784;28;20033;-82
2023/09/28 08:39:31;;;;;;;14.90;6.03;;;;;;;19.90;100.00;94935.28;5055708;28;20354;-83
2023/09/28 08:42:01;;;;;;;19.70;4.97;;;;;;;20.42;100.00;94933.69;5055730;28;20039;-83
2023/09/28 08:44:29;;;;;;;10.35;5.13;;;;;;;20.73;100.00;94935.34;5039161;28;20453;-82
2023/09/28 08:46:59;;;;;;;13.32;5.93;;;;;;;20.74;100.00;94937.69;5055454;28;20079;-82
2023/09/28 08:49:29;;;;;;;17.77;6.45;;;;;;;20.81;100.00;94949.78;5055621;28;20043;-82
2023/09/28 08:51:55;;;;;;;16.60;6.30;;;;;;;20.10;100.00;94943.75;5055639;28;20342;-82
2023/09/28 08:54:22;;;;;;;14.48;5.70;;;;;;;20.65;100.00;94938.81;5055594;28;20082;-82
2023/09/28 08:56:50;;;;;;;11.15;5.28;;;;;;;20.65;100.00;94946.81;5055499;28;20031;-82
2023/09/28 08:59:16;;;;;;;14.80;5.53;;;;;;;20.77;100.00;94944.28;5039070;28;20082;-82
2023/09/28 09:01:42;;;;;;;18.83;6.07;;;;;;;20.61;100.00;94947.44;5055510;28;20024;-82
2023/09/28 09:04:09;;;;;;;13.93;5.72;;;;;;;19.93;100.00;94942.66;5055284;28;20035;-82
2023/09/28 09:06:34;;;;;;;12.55;6.00;;;;;;;19.82;100.00;94952.81;5055443;28;20028;-82
2023/09/28 09:09:02;;;;;;;14.85;5.55;;;;;;;19.92;100.00;94947.19;5055201;28;20033;-82
2023/09/28 09:11:28;;;;;;;20.63;5.63;;;;;;;20.19;100.00;94949.88;5055681;28;20032;-82
2023/09/28 09:13:57;;;;;;;17.80;5.78;;;;;;;20.20;100.00;94954.84;5055364;28;20025;-83
2023/09/28 09:16:24;;;;;;;14.93;5.80;;;;;;;20.30;100.00;94951.09;5039530;28;20366;-83
2023/09/28 09:18:50;;;;;;;11.73;5.70;;;;;;;20.47;100.00;94947.63;5038280;28;20350;-82
2023/09/28 09:21:16;;;;;;;11.00;5.05;;;;;;;20.57;98.39;94940.41;5055495;28;20343;-82
2023/09/28 09:23:42;;;;;;;15.82;5.40;;;;;;;20.84;92.58;94938.47;5038655;28;20032;-82
2023/09/28 09:26:17;;;;;;;12.13;5.30;;;;;;;21.02;90.85;94942.63;5055207;28;20348;-82
2023/09/28 09:28:43;;;;;;;14.93;5.60;;;;;;;21.31;92.82;94935.75;5054959;28;20025;-83
2023/09/28 09:31:09;;;;;;;14.57;5.28;;;;;;;21.22;96.68;94936.91;5055236;28;20107;-82
2023/09/28 09:33:36;;;;;;;12.38;5.43;;;;;;;21.14;98.70;94943.84;5055148;28;20115;-82
2023/09/28 09:36:01;;;;;;;9.75;5.47;;;;;;;20.97;96.41;94934.84;5055441;28;20035;-83
2023/09/28 09:38:28;;;;;;;12.27;5.35;;;;;;;21.07;97.25;94943.56;5054991;28;20025;-82
2023/09/28 09:41:01;;;;;;;13.95;5.20;;;;;;;20.94;91.06;94938.13;5054961;28;20123;-82
2023/09/28 09:43:31;;;;;;;10.07;5.32;;;;;;;21.01;93.90;94942.94;5055106;28;20025;-82
2023/09/28 09:45:57;;;;;;;10.55;5.47;;;;;;;21.01;95.51;94941.06;5055150;28;20021;-82
2023/09/28 09:48:24;;;;;;;16.02;5.18;;;;;;;20.80;96.02;94943.63;5054724;28;20438;-82
2023/09/28 09:50:50;;;;;;;20.25;6.43;;;;;;;21.08;94.50;94937.91;5055366;28;20029;-82
2023/09/28 09:53:16;;;;;;;14.32;5.75;;;;;;;21.25;90.60;94937.06;5038564;28;20426;-83
2023/09/28 09:55:42;;;;;;;14.35;5.70;;;;;;;20.92;91.87;94939.56;5071821;28;20025;-83
2023/09/28 09:58:12;;;;;;;14.93;5.30;;;;;;;20.19;98.27;94940.00;5054861;28;20028;-83
2023/09/28 10:00:38;;;;;;;11.43;5.70;;;;;;;20.20;97.00;94941.56;5038557;28;20032;-82
2023/09/28 10:03:05;;;;;;;18.88;5.35;;;;;;;20.14;100.00;94944.69;5054835;28;20024;-83
2023/09/28 10:05:32;;;;;;;17.38;6.22;;;;;;;20.22;100.00;94943.09;5056039;28;20029;-82
2023/09/28 10:07:58;;;;;;;22.80;5.68;;;;;;;20.56;94.47;94934.28;5056653;28;20055;-83
2023/09/28 10:10:27;;;;;;;10.02;5.63;;;;;;;21.02;96.22;94945.31;5059782;28;20442;-83
2023/09/28 10:12:54;;;;;;;21.50;6.10;;;;;;;20.99;91.55;94937.97;5059168;28;20021;-83
2023/09/28 10:15:20;;;;;;;10.70;5.15;;;;;;;20.96;85.91;94927.94;5058453;28;20416;-83
2023/09/28 10:17:46;;;;;;;11.75;5.00;;;;;;;21.14;89.84;94927.84;5058331;28;20044;-83
2023/09/28 10:20:14;;;;;;;14.43;6.20;;;;;;;20.68;87.50;94933.66;5058207;28;20033;-83
2023/09/28 10:22:43;;;;;;;12.88;5.38;;;;;;;20.39;90.41;94929.81;5042301;28;20413;-83
2023/09/28 10:25:12;;;;;;;14.35;5.22;;;;;;;20.44;96.33;94932.28;5058501;28;20044;-83
2023/09/28 10:27:39;;;;;;;13.85;5.70;;;;;;;20.35;91.62;94926.19;5058566;28;20032;-83
2023/09/28 10:30:22;;;;;;;18.27;5.53;;;;;;;20.53;95.12;94928.84;5058269;28;20020;-83
2023/09/28 10:32:50;;;;;;;10.97;6.07;;;;;;;20.36;92.97;94930.41;5058165;28;20021;-83
2023/09/28 10:35:26;;;;;;;17.17;5.07;;;;;;;20.59;95.26;94935.53;5058145;28;20047;-82
2023/09/28 10:38:20;;;;;;;12.80;5.90;;;;;;;20.73;91.40;94935.34;5058920;28;20052;-83
2023/09/28 10:40:58;;;;;;;18.98;5.57;;;;;;;20.95;85.79;94920.25;5059236;28;20025;-83
2023/09/28 10:43:30;;;;;;;14.13;5.82;;;;;;;21.09;89.23;94928.81;5058191;28;20059;-83
2023/09/28 10:45:57;;;;;;;15.77;5.78;;;;;;;21.03;91.09;94925.56;5058155;28;20098;-83
2023/09/28 10:48:23;;;;;;;17.75;5.80;;;;;;;21.32;87.15;94925.91;5058716;28;20078;-83
2023/09/28 10:50:51;;;;;;;10.10;5.10;;;;;;;21.56;89.25;94919.16;5056355;28;20035;-82
2023/09/28 10:53:18;;;;;;;14.50;5.85;;;;;;;21.96;83.13;94921.41;5040781;28;20032;-83
2023/09/28 10:55:43;;;;;;;9.02;5.05;;;;;;;22.37;80.05;94927.00;5057690;28;20025;-83
2023/09/28 10:58:08;;;;;;;13.02;5.95;;;;;;;21.59;77.31;94927.28;5057477;28;20074;-83
2023/09/28 11:00:34;;;;;;;25.50;5.88;;;;;;;22.13;75.76;94928.47;5057643;28;20029;-83
2023/09/28 11:03:00;;;;;;;9.07;5.25;;;;;;;22.52;72.25;94922.97;5057682;28;20032;-83
2023/09/28 11:05:26;;;;;;;11.20;5.15;;;;;;;22.59;70.02;94917.06;5074431;28;20522;-83
2023/09/28 11:07:52;;;;;;;10.77;5.13;;;;;;;22.72;70.23;94920.53;5056971;28;20107;-83
2023/09/28 11:10:17;;;;;;;18.48;5.45;;;;;;;22.81;69.02;94923.91;5041028;28;20078;-83
2023/09/28 11:12:43;;;;;;;22.58;5.40;;;;;;;22.13;70.74;94919.69;5057691;28;20116;-83
2023/09/28 11:15:09;;;;;;;9.70;4.95;;;;;;;22.27;70.56;94914.84;5057418;28;20025;-83
2023/09/28 11:17:37;;;;;;;16.65;5.20;;;;;;;22.34;72.50;94916.97;5056885;28;20067;-83